createdAt,value
2024-03-12T00:03:02.428Z,79.75
2024-03-12T00:05:49.009Z,79.85
2024-03-12T00:08:35.512Z,79.86
2024-03-12T00:11:26.532Z,80.21
2024-03-12T00:14:12.983Z,80.11
2024-03-12T00:17:01.223Z,79.94
2024-03-12T00:19:50.286Z,80.38
2024-03-12T00:22:40.971Z,80.28
2024-03-12T00:25:29.810Z,80.15
2024-03-12T00:28:19.403Z,80.18
2024-03-12T00:31:06.546Z,80.22
2024-03-12T00:33:53.241Z,80.25
2024-03-12T00:36:41.923Z,80.61
2024-03-12T00:39:28.665Z,80.62
2024-03-12T00:42:16.016Z,80.53
2024-03-12T00:45:06.519Z,80.82
2024-03-12T00:48:01.473Z,80.75
2024-03-12T00:50:49.765Z,80.89
2024-03-12T00:53:36.493Z,80.88
2024-03-12T00:56:27.085Z,80.92
2024-03-12T00:59:16.781Z,81.06
2024-03-12T01:02:06.019Z,81.13
2024-03-12T01:04:57.362Z,80.95
2024-03-12T01:07:43.618Z,81.41
2024-03-12T01:10:32.804Z,81.61
2024-03-12T01:13:19.907Z,81.79
2024-03-12T01:16:09.979Z,81.75
2024-03-12T01:18:58.979Z,81.74
2024-03-12T01:21:47.147Z,81.46
2024-03-12T01:24:36.754Z,81.86
2024-03-12T01:27:24.443Z,82.04
2024-03-12T01:30:15.345Z,81.83
2024-03-12T01:33:10.277Z,81.80
2024-03-12T01:36:07.179Z,81.79
2024-03-12T01:38:56.682Z,81.89
2024-03-12T01:41:48.018Z,82.16
2024-03-12T01:44:36.303Z,82.25
2024-03-12T01:47:25.862Z,81.82
2024-03-12T01:50:15.578Z,81.94
2024-03-12T01:53:09.449Z,82.10
2024-03-12T01:55:56.555Z,82.30
2024-03-12T01:58:43.348Z,82.27
2024-03-12T02:01:30.023Z,82.07
2024-03-12T02:04:17.618Z,82.09
2024-03-12T02:07:05.306Z,82.16
2024-03-12T02:09:52.361Z,82.18
2024-03-12T02:12:50.158Z,82.66
2024-03-12T02:15:37.111Z,82.49
2024-03-12T02:18:23.582Z,82.19
2024-03-12T02:21:10.153Z,82.08
2024-03-12T02:23:59.023Z,82.01
2024-03-12T02:26:46.391Z,82.23
2024-03-12T02:29:33.298Z,82.26
2024-03-12T02:32:19.766Z,82.26
2024-03-12T02:35:13.023Z,82.41
2024-03-12T02:37:59.700Z,82.37
2024-03-12T02:40:47.345Z,82.55
2024-03-12T02:43:37.841Z,82.37
2024-03-12T02:46:24.852Z,82.51
2024-03-12T02:49:15.355Z,82.48
2024-03-12T02:52:03.100Z,82.75
2024-03-12T02:54:50.529Z,82.69
2024-03-12T02:57:37.351Z,82.71
2024-03-12T03:00:24.169Z,82.99
2024-03-12T03:03:10.750Z,83.04
2024-03-12T03:05:57.528Z,82.89
2024-03-12T03:08:46.264Z,82.84
2024-03-12T03:11:39.281Z,83.00
2024-03-12T03:14:26.184Z,82.83
2024-03-12T03:17:12.850Z,82.71
2024-03-12T03:19:59.086Z,82.86
2024-03-12T03:22:47.753Z,82.85
2024-03-12T03:25:34.675Z,82.79
2024-03-12T03:28:21.174Z,83.01
2024-03-12T03:31:07.858Z,83.08
2024-03-12T03:34:06.171Z,82.95
2024-03-12T03:36:56.303Z,83.32
2024-03-12T03:39:43.538Z,83.24
2024-03-12T03:42:30.460Z,83.42
2024-03-12T03:45:19.847Z,83.46
2024-03-12T03:48:06.918Z,83.55
2024-03-12T03:50:53.484Z,83.62
2024-03-12T03:53:41.402Z,83.56
2024-03-12T03:56:31.373Z,83.68
2024-03-12T03:59:17.888Z,83.63
2024-03-12T04:02:07.371Z,83.96
2024-03-12T04:04:54.367Z,83.88
2024-03-12T04:07:45.859Z,83.99
2024-03-12T04:10:33.601Z,84.02
2024-03-12T04:13:19.932Z,83.88
2024-03-12T04:16:07.511Z,84.14
2024-03-12T04:18:55.248Z,84.18
2024-03-12T04:21:42.626Z,84.18
2024-03-12T04:24:29.118Z,84.47
2024-03-12T04:27:16.303Z,84.66
2024-03-12T04:30:05.376Z,84.70
2024-03-12T04:32:51.874Z,84.52
2024-03-12T04:35:39.333Z,84.49
2024-03-12T04:38:27.379Z,84.56
2024-03-12T04:41:14.172Z,84.40
2024-03-12T04:44:00.917Z,84.63
2024-03-12T04:46:47.436Z,84.70
2024-03-12T04:49:33.947Z,85.15
2024-03-12T04:52:21.526Z,84.87
2024-03-12T04:55:08.665Z,84.94
2024-03-12T04:57:55.523Z,85.03
2024-03-12T05:00:43.609Z,85.01
2024-03-12T05:03:30.630Z,84.97
2024-03-12T05:06:18.375Z,84.98
2024-03-12T05:09:07.158Z,85.04
2024-03-12T05:11:54.652Z,85.04
2024-03-12T05:14:41.886Z,85.02
2024-03-12T05:17:28.161Z,85.12
2024-03-12T05:20:25.486Z,85.01
2024-03-12T05:23:14.484Z,84.89
2024-03-12T05:26:02.698Z,85.48
2024-03-12T05:28:49.872Z,85.56
2024-03-12T05:31:40.733Z,85.85
2024-03-12T05:34:39.235Z,85.59
2024-03-12T05:37:42.302Z,85.40
2024-03-12T05:40:55.263Z,85.92
2024-03-12T05:44:01.000Z,85.91
2024-03-12T05:47:10.688Z,85.99
2024-03-12T05:49:58.905Z,85.66
2024-03-12T05:52:49.390Z,85.89
2024-03-12T05:55:42.940Z,86.13
2024-03-12T05:58:29.484Z,86.13
2024-03-12T06:01:17.077Z,85.95
2024-03-12T06:04:06.951Z,86.05
2024-03-12T06:06:53.759Z,85.99
2024-03-12T06:09:40.283Z,86.11
2024-03-12T06:12:29.168Z,86.17
2024-03-12T06:15:21.409Z,86.46
2024-03-12T06:18:08.598Z,86.36
2024-03-12T06:20:57.000Z,86.37
2024-03-12T06:23:45.522Z,86.28
2024-03-12T06:26:32.607Z,86.22
2024-03-12T06:29:19.503Z,86.58
2024-03-12T06:32:08.125Z,86.36
2024-03-12T06:34:54.934Z,86.28
2024-03-12T06:38:12.782Z,86.43
2024-03-12T06:40:59.153Z,86.53
2024-03-12T06:43:46.007Z,86.38
2024-03-12T06:46:33.594Z,86.44
2024-03-12T06:49:21.268Z,86.41
2024-03-12T06:52:08.306Z,86.52
2024-03-12T06:54:55.582Z,86.48
2024-03-12T06:57:53.709Z,86.36
2024-03-12T07:00:47.565Z,86.59
2024-03-12T07:03:35.780Z,86.35
2024-03-12T07:06:23.391Z,86.45
2024-03-12T07:09:14.702Z,86.12
2024-03-12T07:12:07.045Z,86.37
2024-03-12T07:14:58.539Z,86.27
2024-03-12T07:17:45.478Z,86.34
2024-03-12T07:20:36.259Z,86.28
2024-03-12T07:23:22.885Z,86.56
2024-03-12T07:26:09.869Z,86.22
2024-03-12T07:29:01.000Z,86.31
2024-03-12T07:31:47.598Z,86.30
2024-03-12T07:34:34.124Z,86.45
2024-03-12T07:37:20.429Z,86.42
2024-03-12T07:40:11.092Z,86.66
2024-03-12T07:42:57.636Z,86.55
2024-03-12T07:45:48.874Z,86.43
2024-03-12T07:48:38.277Z,86.39
2024-03-12T07:51:25.092Z,86.46
2024-03-12T07:54:14.792Z,86.57
2024-03-12T07:57:02.529Z,86.27
2024-03-12T07:59:49.487Z,86.36
2024-03-12T08:02:42.209Z,86.44
2024-03-12T08:05:32.177Z,86.52
2024-03-12T08:08:22.919Z,86.78
2024-03-12T08:11:09.703Z,86.92
2024-03-12T08:13:58.445Z,86.65
2024-03-12T08:16:45.085Z,86.63
2024-03-12T08:19:33.296Z,86.78
2024-03-12T08:22:20.993Z,86.74
2024-03-12T08:25:12.249Z,86.85
2024-03-12T08:27:59.609Z,86.90
2024-03-12T08:31:19.110Z,86.73
2024-03-12T08:34:17.825Z,86.76
2024-03-12T08:37:05.196Z,86.99
2024-03-12T08:39:52.652Z,86.85
2024-03-12T08:42:47.487Z,87.05
2024-03-12T08:45:41.845Z,86.82
2024-03-12T08:48:28.553Z,86.89
2024-03-12T08:51:15.283Z,86.41
2024-03-12T08:54:02.864Z,86.78
2024-03-12T08:56:50.020Z,86.64
2024-03-12T08:59:36.757Z,87.43
2024-03-12T09:02:23.186Z,86.76
2024-03-12T09:05:10.597Z,86.95
2024-03-12T09:08:00.374Z,87.02
2024-03-12T09:10:49.045Z,86.72
2024-03-12T09:13:35.409Z,86.66
2024-03-12T09:16:25.389Z,86.66
2024-03-12T09:19:15.903Z,86.28
2024-03-12T09:22:30.990Z,86.53
2024-03-12T09:25:20.935Z,86.28
2024-03-12T09:28:07.795Z,86.39
2024-03-12T09:30:55.849Z,86.27
2024-03-12T09:33:42.636Z,86.29
2024-03-12T09:36:29.657Z,86.35
2024-03-12T09:39:18.727Z,86.10
2024-03-12T09:42:08.299Z,85.80
2024-03-12T09:44:55.128Z,86.01
2024-03-12T09:47:44.157Z,85.87
2024-03-12T09:50:30.842Z,85.85
2024-03-12T09:53:20.526Z,85.83
2024-03-12T09:56:09.203Z,86.03
2024-03-12T09:59:01.411Z,85.69
2024-03-12T10:01:49.705Z,85.76
2024-03-12T10:04:36.302Z,86.00
2024-03-12T10:07:27.066Z,86.10
2024-03-12T10:10:13.819Z,85.66
2024-03-12T10:13:00.593Z,85.52
2024-03-12T10:16:05.472Z,85.65
2024-03-12T10:19:11.338Z,85.67
2024-03-12T10:26:32.096Z,84.98
2024-03-12T10:29:21.898Z,85.38
2024-03-12T10:32:26.322Z,85.20
2024-03-12T10:35:22.458Z,85.66
2024-03-12T10:38:13.077Z,85.54
2024-03-12T10:41:17.065Z,85.44
2024-03-12T10:44:08.906Z,85.51
2024-03-12T10:47:00.407Z,85.40
2024-03-12T10:49:51.018Z,85.30
2024-03-12T10:52:38.080Z,85.18
2024-03-12T10:56:16.174Z,85.31
2024-03-12T10:59:04.283Z,85.31
2024-03-12T11:01:52.189Z,85.35
2024-03-12T11:04:40.340Z,84.82
2024-03-12T11:07:29.270Z,85.18
2024-03-12T11:10:16.248Z,85.11
2024-03-12T11:13:08.101Z,84.96
2024-03-12T11:15:59.548Z,85.29
2024-03-12T11:18:50.195Z,84.96
2024-03-12T11:21:38.344Z,85.00
2024-03-12T11:24:25.806Z,85.11
2024-03-12T11:27:20.823Z,84.74
2024-03-12T11:30:20.702Z,84.44
2024-03-12T11:33:38.623Z,85.15
2024-03-12T11:36:25.523Z,84.74
2024-03-12T11:39:30.738Z,84.32
2024-03-12T11:42:18.145Z,84.43
2024-03-12T11:45:08.121Z,84.16
2024-03-12T11:47:56.707Z,84.15
2024-03-12T11:50:44.558Z,84.15
2024-03-12T11:53:39.609Z,84.41
2024-03-12T11:56:28.931Z,84.16
2024-03-12T11:59:26.024Z,84.63
2024-03-12T12:02:13.585Z,83.97
2024-03-12T12:05:58.162Z,83.82
2024-03-12T12:08:53.107Z,84.08
2024-03-12T12:11:45.367Z,84.12
2024-03-12T12:14:39.171Z,83.92
2024-03-12T12:17:26.000Z,83.62
2024-03-12T12:20:16.479Z,83.17
2024-03-12T12:23:06.184Z,83.40
2024-03-12T12:25:57.307Z,83.21
2024-03-12T12:28:45.118Z,82.75
2024-03-12T12:31:37.991Z,82.56
2024-03-12T12:34:30.539Z,81.63
2024-03-12T12:37:18.291Z,81.50
2024-03-12T12:40:10.685Z,81.61
2024-03-12T12:42:59.433Z,81.77
2024-03-12T12:45:47.931Z,81.48
2024-03-12T12:48:40.062Z,80.86
2024-03-12T12:51:29.341Z,80.67
2024-03-12T12:54:44.069Z,79.92
2024-03-12T12:57:36.812Z,79.93
2024-03-12T13:00:25.541Z,79.76
2024-03-12T13:03:18.025Z,79.56
2024-03-12T13:06:17.109Z,79.40
2024-03-12T13:09:06.709Z,79.53
2024-03-12T13:11:55.282Z,79.36
2024-03-12T13:14:45.109Z,79.76
2024-03-12T13:17:34.754Z,79.14
2024-03-12T13:20:22.046Z,79.18
2024-03-12T13:23:10.163Z,79.32
2024-03-12T13:25:57.529Z,78.86
2024-03-12T13:28:50.015Z,78.89
2024-03-12T13:32:27.662Z,79.02
2024-03-12T13:35:14.591Z,78.83
2024-03-12T13:38:00.958Z,78.51
2024-03-12T13:40:47.497Z,78.23
2024-03-12T13:43:34.967Z,78.10
2024-03-12T13:46:23.980Z,78.29
2024-03-12T13:49:13.955Z,78.49
2024-03-12T13:52:01.889Z,78.41
2024-03-12T13:54:48.623Z,78.05
2024-03-12T13:57:35.755Z,77.70
2024-03-12T14:00:27.264Z,76.94
2024-03-12T14:03:15.274Z,77.06
2024-03-12T14:06:04.024Z,77.09
2024-03-12T14:08:51.461Z,75.72
2024-03-12T14:11:40.000Z,75.43
2024-03-12T14:14:27.348Z,75.63
2024-03-12T14:17:13.923Z,75.54
2024-03-12T14:20:00.710Z,75.69
2024-03-12T14:27:08.205Z,74.98
2024-03-12T14:29:54.771Z,74.89
2024-03-12T14:32:41.642Z,74.98
2024-03-12T14:35:31.361Z,75.19
2024-03-12T14:38:38.137Z,75.37
2024-03-12T14:41:25.615Z,75.63
2024-03-12T14:44:12.152Z,75.94
2024-03-12T14:47:01.017Z,75.64
2024-03-12T14:49:47.964Z,75.72
2024-03-12T14:52:34.843Z,75.85
2024-03-12T14:55:23.667Z,76.26
2024-03-12T14:58:11.717Z,76.29
2024-03-12T15:00:59.148Z,76.11
2024-03-12T15:04:45.090Z,76.40
2024-03-12T15:07:31.669Z,76.07
2024-03-12T15:10:20.597Z,75.85
2024-03-12T15:13:07.679Z,76.36
2024-03-12T15:15:56.043Z,76.19
2024-03-12T15:18:42.716Z,76.30
2024-03-12T15:21:29.313Z,76.53
2024-03-12T15:24:16.529Z,76.58
2024-03-12T15:27:03.342Z,76.66
2024-03-12T15:29:49.774Z,76.60
2024-03-12T15:32:41.966Z,76.90
2024-03-12T15:35:30.398Z,76.83
2024-03-12T15:38:16.812Z,76.49
2024-03-12T15:41:04.121Z,76.63
2024-03-12T15:43:51.838Z,76.71
2024-03-12T15:46:39.561Z,76.77
2024-03-12T15:49:26.479Z,76.87
2024-03-12T15:52:14.948Z,76.84
2024-03-12T15:55:03.575Z,77.03
2024-03-12T15:57:50.772Z,77.15
2024-03-12T16:00:38.909Z,77.22
2024-03-12T16:03:26.763Z,77.31
2024-03-12T16:06:16.174Z,77.36
2024-03-12T16:09:04.179Z,77.47
2024-03-12T16:11:50.951Z,77.51
2024-03-12T16:14:41.003Z,77.61
2024-03-12T16:17:31.574Z,77.68
2024-03-12T16:20:20.799Z,77.94
2024-03-12T16:23:07.691Z,77.84
2024-03-12T16:25:53.876Z,78.05
2024-03-12T16:28:40.594Z,78.21
2024-03-12T16:31:27.290Z,78.44
2024-03-12T16:34:13.725Z,78.57
2024-03-12T16:37:00.750Z,78.38
2024-03-12T16:39:47.542Z,78.39
2024-03-12T16:42:36.285Z,78.74
2024-03-12T16:45:24.374Z,78.77
2024-03-12T16:48:11.149Z,78.92
2024-03-12T16:50:58.382Z,79.01
2024-03-12T16:53:44.936Z,79.32
2024-03-12T16:56:34.155Z,79.70
2024-03-12T16:59:22.654Z,79.91
2024-03-12T17:02:12.176Z,80.01
2024-03-12T17:05:01.669Z,80.16
2024-03-12T17:07:56.895Z,80.33
2024-03-12T17:10:47.275Z,80.80
2024-03-12T17:13:36.448Z,81.01
2024-03-12T17:16:27.676Z,81.23
2024-03-12T17:19:16.088Z,81.26
2024-03-12T17:22:11.858Z,81.73
2024-03-12T17:25:02.150Z,81.66
2024-03-12T17:27:53.869Z,81.98
2024-03-12T17:30:41.171Z,82.02
2024-03-12T17:33:28.142Z,82.16
2024-03-12T17:36:24.017Z,81.92
2024-03-12T17:39:13.770Z,82.17
2024-03-12T17:42:02.454Z,82.03
2024-03-12T17:44:50.368Z,82.21
2024-03-12T17:47:37.893Z,82.08
2024-03-12T17:50:28.637Z,82.08
2024-03-12T17:53:18.807Z,82.16
2024-03-12T17:56:11.873Z,82.03
2024-03-12T17:59:00.606Z,82.41
2024-03-12T18:01:47.146Z,82.54
2024-03-12T18:04:34.999Z,82.34
2024-03-12T18:07:26.466Z,82.41
2024-03-12T18:10:17.000Z,82.45
2024-03-12T18:13:06.071Z,82.96
2024-03-12T18:15:53.185Z,82.85
2024-03-12T18:18:40.101Z,82.97
2024-03-12T18:21:26.715Z,83.52
2024-03-12T18:24:14.963Z,83.14
2024-03-12T18:27:01.738Z,83.12
2024-03-12T18:29:50.568Z,82.97
2024-03-12T18:32:41.570Z,83.10
2024-03-12T18:35:28.313Z,82.74
2024-03-12T18:38:18.193Z,83.45
2024-03-12T18:41:04.785Z,83.25
2024-03-12T18:43:51.396Z,83.44
2024-03-12T18:46:39.806Z,83.73
2024-03-12T18:49:33.390Z,83.79
2024-03-12T18:52:20.460Z,83.96
2024-03-12T18:55:10.473Z,83.98
2024-03-12T18:57:58.527Z,84.21
2024-03-12T19:00:46.067Z,84.14
2024-03-12T19:03:50.481Z,84.06
2024-03-12T19:06:39.010Z,83.88
2024-03-12T19:09:28.327Z,83.77
2024-03-12T19:12:17.184Z,84.21
2024-03-12T19:15:07.831Z,84.37
2024-03-12T19:17:57.836Z,84.66
2024-03-12T19:20:45.891Z,85.05
2024-03-12T19:23:33.964Z,85.12
2024-03-12T19:26:20.861Z,85.21
2024-03-12T19:29:10.272Z,85.46
2024-03-12T19:31:57.095Z,85.43
2024-03-12T19:34:48.077Z,85.65
2024-03-12T19:37:38.759Z,85.93
2024-03-12T19:40:27.675Z,86.21
2024-03-12T19:43:14.995Z,86.19
2024-03-12T19:46:02.071Z,85.89
2024-03-12T19:48:49.740Z,86.17
2024-03-12T19:51:38.138Z,86.04
2024-03-12T19:54:27.286Z,86.22
2024-03-12T19:57:13.988Z,85.97
2024-03-12T20:00:00.761Z,86.30
2024-03-12T20:02:48.648Z,86.18
2024-03-12T20:05:37.890Z,86.27
2024-03-12T20:08:27.626Z,86.12
2024-03-12T20:11:13.994Z,86.33
2024-03-12T20:14:01.942Z,86.44
2024-03-12T20:16:49.367Z,86.72
2024-03-12T20:19:40.100Z,86.94
2024-03-12T20:22:26.977Z,86.83
2024-03-12T20:25:18.332Z,86.40
2024-03-12T20:28:12.001Z,86.74
2024-03-12T20:31:02.905Z,87.02
2024-03-12T20:33:53.241Z,87.17
2024-03-12T20:36:47.820Z,87.38
2024-03-12T20:39:39.275Z,87.24
2024-03-12T20:42:30.959Z,86.69
2024-03-12T20:45:22.884Z,86.49
2024-03-12T20:48:11.688Z,86.27
2024-03-12T20:50:58.850Z,86.44
2024-03-12T20:53:45.565Z,86.17
2024-03-12T20:56:35.406Z,86.15
2024-03-12T20:59:21.666Z,86.13
2024-03-12T21:02:11.570Z,86.17
2024-03-12T21:05:02.712Z,86.20
2024-03-12T21:07:51.749Z,86.13
2024-03-12T21:10:44.723Z,85.98
2024-03-12T21:13:31.559Z,86.26
2024-03-12T21:16:20.280Z,86.25
2024-03-12T21:19:09.801Z,86.49
2024-03-12T21:21:57.283Z,86.04
2024-03-12T21:24:47.316Z,85.69
2024-03-12T21:27:36.399Z,85.54
2024-03-12T21:30:25.024Z,84.96
2024-03-12T21:33:13.777Z,85.03
2024-03-12T21:36:00.969Z,84.84
2024-03-12T21:38:50.259Z,84.41
2024-03-12T21:41:40.318Z,84.02
2024-03-12T21:44:29.286Z,83.67
2024-03-12T21:47:16.250Z,84.11
2024-03-12T21:50:04.724Z,83.76
2024-03-12T21:52:52.030Z,83.52
2024-03-12T21:55:40.688Z,83.33
2024-03-12T21:58:27.521Z,83.36
2024-03-12T22:01:17.986Z,83.19
2024-03-12T22:04:04.969Z,82.89
2024-03-12T22:06:51.865Z,82.51
2024-03-12T22:09:38.743Z,82.66
2024-03-12T22:12:25.540Z,82.18
2024-03-12T22:15:16.601Z,82.13
2024-03-12T22:18:03.567Z,82.20
2024-03-12T22:20:50.285Z,81.75
2024-03-12T22:23:40.458Z,81.57
2024-03-12T22:26:27.346Z,81.90
2024-03-12T22:29:16.309Z,81.68
2024-03-12T22:32:07.182Z,81.67
2024-03-12T22:34:53.706Z,81.62
2024-03-12T22:37:45.558Z,81.72
2024-03-12T22:40:32.610Z,81.75
2024-03-12T22:43:20.508Z,81.63
2024-03-12T22:46:08.102Z,81.53
2024-03-12T22:48:55.055Z,81.33
2024-03-12T22:51:42.087Z,81.37
2024-03-12T22:54:28.858Z,81.60
2024-03-12T22:57:18.742Z,81.63
2024-03-12T23:00:26.419Z,81.47
2024-03-12T23:03:14.388Z,81.28
2024-03-12T23:06:07.318Z,81.30
2024-03-12T23:08:54.524Z,81.11
2024-03-12T23:11:44.640Z,80.72
2024-03-12T23:14:31.424Z,80.38
2024-03-12T23:17:17.784Z,80.26
2024-03-12T23:20:08.141Z,80.02
2024-03-12T23:22:54.639Z,80.11
2024-03-12T23:25:43.121Z,80.06
2024-03-12T23:28:31.777Z,80.03
2024-03-12T23:31:21.570Z,79.89
2024-03-12T23:34:13.349Z,79.53
2024-03-12T23:37:02.455Z,79.26
2024-03-12T23:39:51.629Z,79.03
2024-03-12T23:42:41.416Z,78.83
2024-03-12T23:45:29.087Z,78.47
2024-03-12T23:48:16.606Z,78.37
2024-03-12T23:51:03.206Z,78.23
2024-03-12T23:53:50.134Z,78.36
2024-03-12T23:56:40.011Z,77.85
2024-03-12T23:59:26.817Z,78.22
